Time;durP1;ratioP1;P1;durP2;ratioP2;P2;SDS_P1;SDS_P2;PMS_P1;PMS_P2;Temp;Humidity;BMP_temperature;BMP_pressure;BME280_temperature;BME280_humidity;BME280_pressure;Samples;Min_cycle;Max_cycle;Signal;HPM_P1;HPM_P2
2023/09/07 00:00:22;;;;;;;;;;;;;;;-146.25;98.17;52033.66;2096858;28;30861;-63
2023/09/07 00:01:26;;;;;;;;;;;;;;;-146.25;98.50;52015.41;2097370;28;19924;-63
2023/09/07 00:02:27;;;;;;;;;;;;;;;-146.25;98.57;52027.56;2095748;28;40897;-64
2023/09/07 00:03:40;;;;;;;;;;;;;;;-146.25;98.47;52037.72;2096605;28;28277;-63
2023/09/07 00:04:43;;;;;;;;;;;;;;;-146.25;98.76;52015.41;2096436;28;36213;-62
2023/09/07 00:05:45;;;;;;;;;;;;;;;-146.25;98.52;52013.38;2096624;28;38374;-63
2023/09/07 00:06:46;;;;;;;;;;;;;;;-146.25;99.00;52055.97;2097330;28;19917;-63
2023/09/07 00:07:48;;;;;;;;;;;;;;;-146.25;98.90;52009.31;2096758;28;41736;-63
2023/09/07 00:08:50;;;;;;;;;;;;;;;-146.25;98.78;52035.69;2096612;28;32851;-63
2023/09/07 00:09:51;;;;;;;;;;;;;;;-146.25;99.06;52043.78;2096593;28;35031;-63
2023/09/07 00:10:53;;;;;;;;;;;;;;;-146.25;99.03;52045.81;2096542;28;36842;-63
2023/09/07 00:11:54;;;;;;;;;;;;;;;-146.25;99.34;52047.84;2097532;28;20039;-63
2023/09/07 00:12:58;;;;;;;;;;;;;;;-146.25;99.11;52007.31;2096416;28;40076;-63
2023/09/07 00:14:01;;;;;;;;;;;;;;;-146.25;98.98;52031.63;2097602;28;20802;-63
2023/09/07 00:15:03;;;;;;;;;;;;;;;-146.25;99.31;52047.84;2096759;28;35754;-63
2023/09/07 00:16:08;;;;;;;;;;;;;;;-146.25;98.50;52039.75;2096356;28;40708;-62
2023/09/07 00:17:10;;;;;;;;;;;;;;;-146.25;98.22;52041.75;2096576;28;33793;-63
2023/09/07 00:18:11;;;;;;;;;;;;;;;-146.25;97.58;52055.97;2096382;28;38213;-63
2023/09/07 00:19:15;;;;;;;;;;;;;;;-146.25;97.53;52009.31;2096595;28;37650;-63
2023/09/07 00:20:19;;;;;;;;;;;;;;;-146.25;97.66;52023.53;2096563;28;36038;-63
2023/09/07 00:21:20;;;;;;;;;;;;;;;-146.25;97.45;52045.81;2096056;28;39980;-63
2023/09/07 00:22:22;;;;;;;;;;;;;;;-146.25;97.61;52060.00;2097069;28;20886;-63
2023/09/07 00:23:24;;;;;;;;;;;;;;;-146.25;97.85;52068.13;2096660;28;38733;-63
2023/09/07 00:24:26;;;;;;;;;;;;;;;-146.25;97.25;52037.72;2096516;28;36781;-63
2023/09/07 00:25:27;;;;;;;;;;;;;;;-146.25;97.23;52047.84;2096282;28;35658;-63
2023/09/07 00:26:29;;;;;;;;;;;;;;;-146.25;97.45;52031.63;2096698;28;34059;-63
2023/09/07 00:27:31;;;;;;;;;;;;;;;-146.25;97.71;52023.53;2097457;28;20757;-63
2023/09/07 00:28:32;;;;;;;;;;;;;;;-146.25;98.23;52055.97;2096800;28;32134;-63
2023/09/07 00:29:40;;;;;;;;;;;;;;;-146.25;99.93;52029.59;2096923;28;31901;-63
2023/09/07 00:30:42;;;;;;;;;;;;;;;-146.25;100.00;52039.75;2097168;28;29432;-62
2023/09/07 00:31:43;;;;;;;;;;;;;;;-146.25;100.00;52029.59;2096774;28;30471;-63
2023/09/07 00:32:45;;;;;;;;;;;;;;;-146.25;99.33;52037.72;2096583;28;19925;-63
2023/09/07 00:33:46;;;;;;;;;;;;;;;-146.25;99.64;52080.28;2096278;28;30173;-63
2023/09/07 00:34:48;;;;;;;;;;;;;;;-146.25;100.00;52027.56;2096969;28;25383;-64
2023/09/07 00:35:52;;;;;;;;;;;;;;;-146.25;99.24;52058.00;2096234;28;30433;-63
2023/09/07 00:36:53;;;;;;;;;;;;;;;-146.25;99.16;52045.81;2096428;28;23244;-64
2023/09/07 00:37:55;;;;;;;;;;;;;;;-146.25;99.40;52043.78;2096704;28;27737;-63
2023/09/07 00:39:00;;;;;;;;;;;;;;;-146.25;99.06;52051.91;2096726;28;30127;-64
2023/09/07 00:40:03;;;;;;;;;;;;;;;-146.25;98.85;52060.00;2096175;28;20337;-64
2023/09/07 00:41:05;;;;;;;;;;;;;;;-146.25;98.98;52039.75;2096232;28;26216;-63
2023/09/07 00:42:06;;;;;;;;;;;;;;;-146.25;98.69;52058.00;2096022;28;31363;-63
2023/09/07 00:43:09;;;;;;;;;;;;;;;-146.25;98.52;52062.03;2096654;28;19959;-63
2023/09/07 00:44:11;;;;;;;;;;;;;;;-146.25;98.40;52039.75;2095839;28;21269;-63
2023/09/07 00:45:13;;;;;;;;;;;;;;;-146.25;98.32;52031.63;2096256;28;19925;-63
2023/09/07 00:46:15;;;;;;;;;;;;;;;-146.25;98.50;52027.56;2104673;28;19920;-63
2023/09/07 00:47:17;;;;;;;;;;;;;;;-146.25;98.89;52060.00;2096471;28;19983;-64
2023/09/07 00:48:20;;;;;;;;;;;;;;;-146.25;99.62;52039.75;2096624;28;19986;-63
2023/09/07 00:49:24;;;;;;;;;;;;;;;-146.25;99.41;52033.66;2097312;28;19936;-63
2023/09/07 00:50:25;;;;;;;;;;;;;;;-146.25;99.34;52047.84;2097087;28;19921;-63
2023/09/07 00:51:27;;;;;;;;;;;;;;;-146.25;100.00;52027.56;2096883;28;22244;-63
2023/09/07 00:52:29;;;;;;;;;;;;;;;-146.25;99.92;52043.78;2096365;28;20795;-63
2023/09/07 00:53:31;;;;;;;;;;;;;;;-146.25;100.00;52029.59;2096209;28;23082;-63
2023/09/07 00:54:34;;;;;;;;;;;;;;;-146.25;100.00;52023.53;2096726;28;19917;-63
2023/09/07 00:55:36;;;;;;;;;;;;;;;-146.25;100.00;52035.69;2096965;28;24408;-63
2023/09/07 00:56:38;;;;;;;;;;;;;;;-146.25;100.00;52072.19;2096454;28;19979;-63
2023/09/07 00:57:42;;;;;;;;;;;;;;;-146.25;100.00;52027.56;2088461;28;20027;-63
2023/09/07 00:58:44;;;;;;;;;;;;;;;-146.25;100.00;52076.22;2096146;28;19943;-63
2023/09/07 00:59:48;;;;;;;;;;;;;;;-146.25;100.00;52045.81;2097069;28;19916;-63
2023/09/07 01:00:50;;;;;;;;;;;;;;;-146.25;100.00;52072.19;2087954;28;25197;-63
2023/09/07 01:01:51;;;;;;;;;;;;;;;-146.25;100.00;52031.63;2096529;28;19948;-63
2023/09/07 01:02:53;;;;;;;;;;;;;;;-146.25;100.00;52021.50;2096300;28;19920;-63
2023/09/07 01:03:57;;;;;;;;;;;;;;;-146.25;100.00;52041.75;2088068;28;19925;-63
2023/09/07 01:05:04;;;;;;;;;;;;;;;-146.25;100.00;52029.59;2088129;28;19928;-62
2023/09/07 01:06:14;;;;;;;;;;;;;;;-146.25;100.00;52074.22;2096865;28;20802;-64
2023/09/07 01:07:35;;;;;;;;;;;;;;;-146.25;100.00;52023.53;2103249;28;24981;-63
2023/09/07 01:08:44;;;;;;;;;;;;;;;-146.25;100.00;52049.88;2096021;28;19935;-63
2023/09/07 01:09:51;;;;;;;;;;;;;;;-146.25;100.00;52064.06;2096693;28;19963;-63
2023/09/07 01:10:53;;;;;;;;;;;;;;;-146.25;100.00;52029.59;2096287;28;20833;-63
2023/09/07 01:11:55;;;;;;;;;;;;;;;-146.25;100.00;52027.56;2096440;28;19971;-63
2023/09/07 01:12:57;;;;;;;;;;;;;;;-146.25;100.00;52039.75;2087486;28;22183;-63
2023/09/07 01:13:58;;;;;;;;;;;;;;;-146.25;100.00;52072.19;2089322;28;19929;-63
2023/09/07 01:15:01;;;;;;;;;;;;;;;-146.25;100.00;52045.81;2089573;28;19996;-63
2023/09/07 01:16:05;;;;;;;;;;;;;;;-146.25;100.00;52058.00;2090393;28;20006;-63
2023/09/07 01:17:09;;;;;;;;;;;;;;;-146.25;100.00;52043.78;2089875;28;22428;-63
2023/09/07 01:18:11;;;;;;;;;;;;;;;-146.25;100.00;52049.88;2089892;28;29141;-63
2023/09/07 01:19:25;;;;;;;;;;;;;;;-146.25;100.00;52051.91;2089466;28;20031;-63
2023/09/07 01:20:28;;;;;;;;;;;;;;;-146.25;100.00;52066.09;2089257;28;25306;-64
2023/09/07 01:21:38;;;;;;;;;;;;;;;-146.25;100.00;52033.66;2089678;28;20050;-62
2023/09/07 01:22:43;;;;;;;;;;;;;;;-146.25;100.00;52049.88;2089826;28;20043;-63
2023/09/07 01:23:46;;;;;;;;;;;;;;;-146.25;100.00;52055.97;2089307;28;20047;-63
2023/09/07 01:24:49;;;;;;;;;;;;;;;-146.25;100.00;52017.44;2089189;28;19925;-63
2023/09/07 01:25:54;;;;;;;;;;;;;;;-146.25;100.00;52072.19;2089797;28;21093;-63
2023/09/07 01:26:57;;;;;;;;;;;;;;;-146.25;100.00;52064.06;2089840;28;26295;-63
2023/09/07 01:27:59;;;;;;;;;;;;;;;-146.25;100.00;52047.84;2097691;28;19913;-63
2023/09/07 01:29:01;;;;;;;;;;;;;;;-146.25;100.00;52041.75;2097465;28;19916;-64
2023/09/07 01:30:07;;;;;;;;;;;;;;;-146.25;99.62;52047.84;2089830;28;19924;-63
2023/09/07 01:31:13;;;;;;;;;;;;;;;-146.25;99.72;52062.03;2090182;28;27907;-62
2023/09/07 01:32:15;;;;;;;;;;;;;;;-146.25;99.46;52064.06;2089195;28;25818;-63
2023/09/07 01:33:17;;;;;;;;;;;;;;;-146.25;99.67;52051.91;2080521;28;30675;-63
2023/09/07 01:34:18;;;;;;;;;;;;;;;-146.25;100.00;52035.69;2089254;28;28007;-63
2023/09/07 01:35:22;;;;;;;;;;;;;;;-146.25;100.00;52074.22;2089536;28;26416;-63
2023/09/07 01:36:23;;;;;;;;;;;;;;;-146.25;99.65;52080.28;2097434;28;19921;-63
2023/09/07 01:37:25;;;;;;;;;;;;;;;-146.25;100.00;52049.88;2089424;28;19917;-63
2023/09/07 01:38:27;;;;;;;;;;;;;;;-146.25;100.00;52039.75;2089470;28;20678;-63
2023/09/07 01:39:29;;;;;;;;;;;;;;;-146.25;100.00;52084.34;2089020;28;25529;-63
2023/09/07 01:40:31;;;;;;;;;;;;;;;-146.25;99.75;52047.84;2089491;28;21425;-63
2023/09/07 01:41:33;;;;;;;;;;;;;;;-146.25;100.00;52031.63;2080589;28;28911;-63
2023/09/07 01:42:35;;;;;;;;;;;;;;;-146.25;99.87;52064.06;2088926;28;31156;-63
2023/09/07 01:43:37;;;;;;;;;;;;;;;-146.25;99.83;52070.16;2089962;28;29061;-62
2023/09/07 01:44:39;;;;;;;;;;;;;;;-146.25;99.77;52058.00;2089350;28;32959;-63
2023/09/07 01:45:40;;;;;;;;;;;;;;;-146.25;99.60;52031.63;2088687;28;33287;-62
2023/09/07 01:46:42;;;;;;;;;;;;;;;-146.25;100.00;52070.16;2088811;28;29489;-64
2023/09/07 01:47:44;;;;;;;;;;;;;;;-146.25;99.86;52049.88;2090063;28;19928;-63
2023/09/07 01:48:46;;;;;;;;;;;;;;;-146.25;100.00;52055.97;2090116;28;19925;-63
2023/09/07 01:49:48;;;;;;;;;;;;;;;-146.25;100.00;52072.19;2090107;28;20786;-63
2023/09/07 01:50:53;;;;;;;;;;;;;;;-146.25;100.00;52076.22;2089174;28;20146;-63
2023/09/07 01:51:55;;;;;;;;;;;;;;;-146.25;100.00;52068.13;2081507;28;19929;-63
2023/09/07 01:52:57;;;;;;;;;;;;;;;-146.25;100.00;52037.72;2089516;28;19982;-63
2023/09/07 01:53:58;;;;;;;;;;;;;;;-146.25;100.00;52080.28;2089496;28;29283;-63
2023/09/07 01:55:00;;;;;;;;;;;;;;;-146.25;100.00;52041.75;2089933;28;19925;-62
2023/09/07 01:56:02;;;;;;;;;;;;;;;-146.25;100.00;52068.13;2089231;28;20741;-63
2023/09/07 01:57:04;;;;;;;;;;;;;;;-146.25;100.00;52070.16;2089548;28;19920;-63
2023/09/07 01:58:06;;;;;;;;;;;;;;;-146.25;100.00;52035.69;2089125;28;20789;-64
2023/09/07 01:59:08;;;;;;;;;;;;;;;-146.25;100.00;52047.84;2089046;28;19922;-63
2023/09/07 02:00:11;;;;;;;;;;;;;;;-146.25;100.00;52043.78;2088879;28;22798;-64
2023/09/07 02:01:34;;;;;;;;;;;;;;;-146.25;100.00;52064.06;2089677;28;19969;-63
2023/09/07 02:02:35;;;;;;;;;;;;;;;-146.25;100.00;52098.53;2097837;28;20047;-63
2023/09/07 02:03:37;;;;;;;;;;;;;;;-146.25;100.00;52094.47;2097546;28;20786;-63
2023/09/07 02:04:38;;;;;;;;;;;;;;;-146.25;100.00;52068.13;2097666;28;19920;-63
2023/09/07 02:05:40;;;;;;;;;;;;;;;-146.25;100.00;52051.91;2106105;28;26991;-63
2023/09/07 02:06:42;;;;;;;;;;;;;;;-146.25;100.00;52072.19;2097799;28;30710;-63
2023/09/07 02:07:43;;;;;;;;;;;;;;;-146.25;100.00;52090.44;2105567;28;28348;-63
2023/09/07 02:08:45;;;;;;;;;;;;;;;-146.25;100.00;52051.91;2105509;28;27867;-63
2023/09/07 02:09:47;;;;;;;;;;;;;;;-146.25;100.00;52066.09;2097435;28;19928;-62
2023/09/07 02:10:49;;;;;;;;;;;;;;;-146.25;100.00;52066.09;2097447;28;20583;-63
2023/09/07 02:11:50;;;;;;;;;;;;;;;-146.25;100.00;52074.22;2097474;28;29685;-64
2023/09/07 02:12:52;;;;;;;;;;;;;;;-146.25;100.00;52082.31;2097575;28;26313;-63
2023/09/07 02:13:54;;;;;;;;;;;;;;;-146.25;100.00;52055.97;2097296;28;36466;-63
2023/09/07 02:14:58;;;;;;;;;;;;;;;-146.25;100.00;52072.19;2097352;28;21126;-63
2023/09/07 02:16:06;;;;;;;;;;;;;;;-146.25;100.00;52064.06;2097488;28;20804;-63
2023/09/07 02:17:08;;;;;;;;;;;;;;;-146.25;99.82;52068.13;2097313;28;19925;-63
2023/09/07 02:18:11;;;;;;;;;;;;;;;-146.25;100.00;52058.00;2089355;28;19956;-63
2023/09/07 02:19:13;;;;;;;;;;;;;;;-146.25;100.00;52039.75;2088531;28;19999;-63
2023/09/07 02:20:20;;;;;;;;;;;;;;;-146.25;99.81;52045.81;2089472;28;19921;-64
2023/09/07 02:21:22;;;;;;;;;;;;;;;-146.25;100.00;52043.78;2096710;28;26250;-63
2023/09/07 02:22:23;;;;;;;;;;;;;;;-146.25;99.71;52053.94;2097139;28;27979;-63
2023/09/07 02:23:25;;;;;;;;;;;;;;;-146.25;99.72;52043.78;2097239;28;19956;-63
2023/09/07 02:24:27;;;;;;;;;;;;;;;-146.25;99.93;52047.84;2088688;28;23492;-63
2023/09/07 02:25:30;;;;;;;;;;;;;;;-146.25;100.00;52076.22;2089112;28;19921;-62
2023/09/07 02:26:32;;;;;;;;;;;;;;;-146.25;100.00;52064.06;2096943;28;20795;-63
2023/09/07 02:27:38;;;;;;;;;;;;;;;-146.25;100.00;52055.97;2097315;28;20401;-63
2023/09/07 02:28:40;;;;;;;;;;;;;;;-146.25;100.00;52092.44;2089619;28;20055;-63
2023/09/07 02:29:42;;;;;;;;;;;;;;;-146.25;100.00;52007.31;2096938;28;20035;-62
2023/09/07 02:30:46;;;;;;;;;;;;;;;-146.25;100.00;52058.00;2105984;28;19931;-63
2023/09/07 02:31:53;;;;;;;;;;;;;;;-146.25;100.00;52060.00;2097406;28;19998;-63
2023/09/07 02:32:57;;;;;;;;;;;;;;;-146.25;100.00;52037.72;2097484;28;19951;-63
2023/09/07 02:34:03;;;;;;;;;;;;;;;-146.25;100.00;52064.06;2097200;28;20091;-63
2023/09/07 02:35:05;;;;;;;;;;;;;;;-146.25;100.00;52047.84;2097487;28;20025;-63
2023/09/07 02:36:07;;;;;;;;;;;;;;;-146.25;100.00;52076.22;2097469;28;29936;-63
2023/09/07 02:37:09;;;;;;;;;;;;;;;-146.25;100.00;52072.19;2097970;28;19920;-63
2023/09/07 02:38:13;;;;;;;;;;;;;;;-146.25;100.00;52070.16;2096829;28;27235;-63
2023/09/07 02:39:15;;;;;;;;;;;;;;;-146.25;100.00;52064.06;2097281;28;19928;-63
2023/09/07 02:40:16;;;;;;;;;;;;;;;-146.25;100.00;52060.00;2088480;28;26320;-63
2023/09/07 02:41:18;;;;;;;;;;;;;;;-146.25;100.00;52027.56;2088458;28;21148;-63
2023/09/07 02:42:20;;;;;;;;;;;;;;;-146.25;100.00;52023.53;2088713;28;27025;-63
2023/09/07 02:43:22;;;;;;;;;;;;;;;-146.25;100.00;52045.81;2088454;28;27602;-63
2023/09/07 02:44:26;;;;;;;;;;;;;;;-146.25;100.00;52074.22;2080948;28;19925;-63
2023/09/07 02:45:27;;;;;;;;;;;;;;;-146.25;100.00;52064.06;2088627;28;19929;-63
2023/09/07 02:46:29;;;;;;;;;;;;;;;-146.25;100.00;52076.22;2089742;28;20059;-64
2023/09/07 02:47:31;;;;;;;;;;;;;;;-146.25;100.00;52051.91;2088836;28;19917;-63
2023/09/07 02:48:35;;;;;;;;;;;;;;;-146.25;100.00;52072.19;2088249;28;26328;-63
2023/09/07 02:49:39;;;;;;;;;;;;;;;-146.25;100.00;52039.75;2096847;28;19921;-63
2023/09/07 02:50:42;;;;;;;;;;;;;;;-146.25;100.00;52047.84;2089002;28;20140;-63
2023/09/07 02:51:44;;;;;;;;;;;;;;;-146.25;100.00;52031.63;2088375;28;22514;-63
2023/09/07 02:52:46;;;;;;;;;;;;;;;-146.25;100.00;52062.03;2080421;28;19922;-63
2023/09/07 02:53:47;;;;;;;;;;;;;;;-146.25;100.00;52055.97;2080520;28;20052;-63
2023/09/07 02:54:49;;;;;;;;;;;;;;;-146.25;100.00;52084.34;2088836;28;19921;-64
2023/09/07 02:55:51;;;;;;;;;;;;;;;-146.25;100.00;52062.03;2088759;28;19925;-63
2023/09/07 02:56:53;;;;;;;;;;;;;;;-146.25;99.54;52060.00;2088608;28;19921;-63
2023/09/07 02:57:57;;;;;;;;;;;;;;;-146.25;99.38;52060.00;2080677;28;20008;-63
2023/09/07 02:59:01;;;;;;;;;;;;;;;-146.25;99.71;52043.78;2088869;28;19928;-63
2023/09/07 03:00:09;;;;;;;;;;;;;;;-146.25;99.53;52090.44;2096397;28;23677;-63
2023/09/07 03:01:13;;;;;;;;;;;;;;;-146.25;99.94;52084.34;2088580;28;19925;-63
2023/09/07 03:02:15;;;;;;;;;;;;;;;-146.25;99.19;52092.44;2088541;28;19921;-63
2023/09/07 03:03:17;;;;;;;;;;;;;;;-146.25;99.72;52060.00;2088866;28;19921;-63
2023/09/07 03:04:20;;;;;;;;;;;;;;;-146.25;99.67;52053.94;2080821;28;19929;-63
2023/09/07 03:05:21;;;;;;;;;;;;;;;-146.25;99.32;52068.13;2088297;28;25881;-63
2023/09/07 03:06:25;;;;;;;;;;;;;;;-146.25;98.99;52041.75;2088487;28;19921;-63
2023/09/07 03:07:33;;;;;;;;;;;;;;;-146.25;99.24;52084.34;2089017;28;20757;-64
2023/09/07 03:08:35;;;;;;;;;;;;;;;-146.25;98.66;52064.06;2088797;28;19995;-63
2023/09/07 03:09:37;;;;;;;;;;;;;;;-146.25;99.04;52082.31;2080502;28;20291;-63
2023/09/07 03:10:39;;;;;;;;;;;;;;;-146.25;99.37;52068.13;2088558;28;22400;-63
2023/09/07 03:11:42;;;;;;;;;;;;;;;-146.25;99.50;52106.66;2096453;28;20050;-63
2023/09/07 03:12:46;;;;;;;;;;;;;;;-146.25;99.47;52070.16;2097573;28;19952;-63
2023/09/07 03:13:48;;;;;;;;;;;;;;;-146.25;99.23;52066.09;2097579;28;20922;-63
2023/09/07 03:14:52;;;;;;;;;;;;;;;-146.25;99.10;52043.78;2097037;28;20825;-63
2023/09/07 03:15:57;;;;;;;;;;;;;;;-146.25;98.60;52070.16;2097163;28;20056;-63
2023/09/07 03:16:59;;;;;;;;;;;;;;;-146.25;98.46;52088.41;2096829;28;19921;-63
2023/09/07 03:18:03;;;;;;;;;;;;;;;-146.25;98.44;52039.75;2097233;28;19923;-63
2023/09/07 03:19:05;;;;;;;;;;;;;;;-146.25;98.67;52076.22;2096893;28;19924;-63
2023/09/07 03:20:13;;;;;;;;;;;;;;;-146.25;98.91;52045.81;2088602;28;22801;-63
2023/09/07 03:21:18;;;;;;;;;;;;;;;-146.25;98.83;52053.94;2089810;28;19925;-62
2023/09/07 03:22:19;;;;;;;;;;;;;;;-146.25;98.41;52062.03;2097335;28;19928;-63
2023/09/07 03:23:23;;;;;;;;;;;;;;;-146.25;99.08;52074.22;2096762;28;19971;-63
2023/09/07 03:24:24;;;;;;;;;;;;;;;-146.25;98.97;52051.91;2097204;28;19927;-63
2023/09/07 03:25:26;;;;;;;;;;;;;;;-146.25;98.82;52072.19;2096502;28;25310;-63
2023/09/07 03:26:27;;;;;;;;;;;;;;;-146.25;98.82;52074.22;2088244;28;19991;-63
2023/09/07 03:27:29;;;;;;;;;;;;;;;-146.25;99.24;52068.13;2097356;28;20066;-63
2023/09/07 03:28:31;;;;;;;;;;;;;;;-146.25;99.06;52094.47;2097842;28;19913;-62
2023/09/07 03:29:35;;;;;;;;;;;;;;;-146.25;98.88;52074.22;2096790;28;31382;-63
2023/09/07 03:30:38;;;;;;;;;;;;;;;-146.25;98.75;52094.47;2096744;28;19929;-63
2023/09/07 03:31:40;;;;;;;;;;;;;;;-146.25;98.67;52064.06;2096789;28;19920;-63
2023/09/07 03:32:41;;;;;;;;;;;;;;;-146.25;98.82;52072.19;2096771;28;39289;-63
2023/09/07 03:33:43;;;;;;;;;;;;;;;-146.25;98.76;52096.50;2096686;28;19917;-63
2023/09/07 03:34:45;;;;;;;;;;;;;;;-146.25;99.00;52058.00;2096562;28;32941;-63
2023/09/07 03:35:47;;;;;;;;;;;;;;;-146.25;99.18;52108.66;2097081;28;28788;-63
2023/09/07 03:36:49;;;;;;;;;;;;;;;-146.25;99.13;52049.88;2097342;28;19975;-63
2023/09/07 03:37:53;;;;;;;;;;;;;;;-146.25;99.30;52094.47;2096384;28;27209;-63
2023/09/07 03:38:54;;;;;;;;;;;;;;;-146.25;99.09;52060.00;2088700;28;25584;-63
2023/09/07 03:39:57;;;;;;;;;;;;;;;-146.25;99.44;52108.66;2089341;28;19921;-64
2023/09/07 03:40:58;;;;;;;;;;;;;;;-146.25;99.46;52086.38;2088047;28;19983;-63
2023/09/07 03:42:00;;;;;;;;;;;;;;;-146.25;99.91;52100.56;2096695;28;19929;-63
2023/09/07 03:43:02;;;;;;;;;;;;;;;-146.25;99.57;52088.41;2096916;28;20051;-63
2023/09/07 03:44:05;;;;;;;;;;;;;;;-146.25;99.42;52076.22;2096841;28;19925;-63
2023/09/07 03:45:07;;;;;;;;;;;;;;;-146.25;99.44;52084.34;2105321;28;20771;-63
2023/09/07 03:46:09;;;;;;;;;;;;;;;-146.25;99.98;52088.41;2096465;28;20674;-63
2023/09/07 03:47:16;;;;;;;;;;;;;;;-146.25;99.92;52064.06;2088771;28;19920;-63
2023/09/07 03:48:20;;;;;;;;;;;;;;;-146.25;100.00;52060.00;2097125;28;19925;-63
2023/09/07 03:49:22;;;;;;;;;;;;;;;-146.25;99.80;52062.03;2097700;28;19917;-63
2023/09/07 03:50:23;;;;;;;;;;;;;;;-146.25;100.00;52082.31;2097204;28;19993;-63
2023/09/07 03:51:25;;;;;;;;;;;;;;;-146.25;100.00;52021.50;2096859;28;20026;-62
2023/09/07 03:52:31;;;;;;;;;;;;;;;-146.25;100.00;52070.16;2096800;28;20773;-63
2023/09/07 03:53:35;;;;;;;;;;;;;;;-146.25;100.00;52078.25;2097879;28;20729;-63
2023/09/07 03:54:37;;;;;;;;;;;;;;;-146.25;100.00;52064.06;2096658;28;20067;-63
2023/09/07 03:55:43;;;;;;;;;;;;;;;-146.25;100.00;52076.22;2096807;28;20050;-63
2023/09/07 03:56:46;;;;;;;;;;;;;;;-146.25;100.00;52100.56;2096826;28;20876;-63
2023/09/07 03:57:47;;;;;;;;;;;;;;;-146.25;100.00;52086.38;2096916;28;30225;-63
2023/09/07 03:58:49;;;;;;;;;;;;;;;-146.25;100.00;52068.13;2097411;28;24400;-63
2023/09/07 03:59:51;;;;;;;;;;;;;;;-146.25;100.00;52066.09;2096708;28;19916;-63
2023/09/07 04:00:52;;;;;;;;;;;;;;;-146.25;100.00;52076.22;2088094;28;20769;-63
2023/09/07 04:01:54;;;;;;;;;;;;;;;-146.25;100.00;52072.19;2088169;28;19983;-64
2023/09/07 04:02:58;;;;;;;;;;;;;;;-146.25;100.00;52084.34;2096990;28;19916;-63
2023/09/07 04:04:02;;;;;;;;;;;;;;;-146.25;100.00;52078.25;2096939;28;30638;-63
2023/09/07 04:05:05;;;;;;;;;;;;;;;-146.25;100.00;52064.06;2097057;28;19920;-63
2023/09/07 04:06:06;;;;;;;;;;;;;;;-146.25;100.00;52074.22;2096643;28;19929;-63
2023/09/07 04:07:08;;;;;;;;;;;;;;;-146.25;100.00;52076.22;2087456;28;34789;-63
2023/09/07 04:08:09;;;;;;;;;;;;;;;-146.25;100.00;52055.97;2088226;28;24162;-63
2023/09/07 04:09:11;;;;;;;;;;;;;;;-146.25;100.00;52070.16;2096271;28;32785;-63
2023/09/07 04:10:13;;;;;;;;;;;;;;;-146.25;100.00;52100.56;2095765;28;32564;-62
2023/09/07 04:11:17;;;;;;;;;;;;;;;-146.25;100.00;52078.25;2087558;28;32302;-62
2023/09/07 04:12:18;;;;;;;;;;;;;;;-146.25;100.00;52104.63;2089170;28;22934;-62
2023/09/07 04:13:20;;;;;;;;;;;;;;;-146.25;100.00;52055.97;2104430;28;24370;-62
2023/09/07 04:14:22;;;;;;;;;;;;;;;-146.25;100.00;52066.09;2097036;28;27148;-63
2023/09/07 04:15:25;;;;;;;;;;;;;;;-146.25;100.00;52088.41;2096245;28;25792;-63
2023/09/07 04:16:27;;;;;;;;;;;;;;;-146.25;100.00;52060.00;2088844;28;19917;-64
2023/09/07 04:17:29;;;;;;;;;;;;;;;-146.25;100.00;52112.72;2096342;28;30966;-62
2023/09/07 04:18:31;;;;;;;;;;;;;;;-146.25;100.00;52055.97;2096694;28;19929;-64
2023/09/07 04:19:36;;;;;;;;;;;;;;;-146.25;100.00;52051.91;2097246;28;19932;-64
2023/09/07 04:20:37;;;;;;;;;;;;;;;-146.25;100.00;52047.84;2096720;28;19924;-64
2023/09/07 04:21:43;;;;;;;;;;;;;;;-146.25;100.00;52084.34;2087927;28;20006;-64
2023/09/07 04:22:45;;;;;;;;;;;;;;;-146.25;100.00;52074.22;2088532;28;32741;-63
2023/09/07 04:23:47;;;;;;;;;;;;;;;-146.25;100.00;52062.03;2088309;28;20000;-64
2023/09/07 04:24:49;;;;;;;;;;;;;;;-146.25;100.00;52064.06;2088466;28;19924;-64
2023/09/07 04:25:52;;;;;;;;;;;;;;;-146.25;100.00;52086.38;2088098;28;19980;-64
2023/09/07 04:26:59;;;;;;;;;;;;;;;-146.25;100.00;52060.00;2096394;28;19921;-63
2023/09/07 04:28:01;;;;;;;;;;;;;;;-146.25;100.00;52064.06;2096021;28;19917;-64
2023/09/07 04:29:03;;;;;;;;;;;;;;;-146.25;100.00;52072.19;2096630;28;20725;-63
2023/09/07 04:30:06;;;;;;;;;;;;;;;-146.25;100.00;52082.31;2104894;28;23967;-64
2023/09/07 04:31:07;;;;;;;;;;;;;;;-146.25;100.00;52058.00;2096283;28;19928;-63
2023/09/07 04:32:09;;;;;;;;;;;;;;;-146.25;100.00;52074.22;2087770;28;22007;-63
2023/09/07 04:33:13;;;;;;;;;;;;;;;-146.25;100.00;52106.66;2088272;28;19968;-64
2023/09/07 04:34:18;;;;;;;;;;;;;;;-146.25;100.00;52027.56;2096663;28;19994;-63
2023/09/07 04:35:19;;;;;;;;;;;;;;;-146.25;100.00;52049.88;2096992;28;22966;-64
2023/09/07 04:36:21;;;;;;;;;;;;;;;-146.25;100.00;52104.63;2095891;28;29011;-64
2023/09/07 04:37:23;;;;;;;;;;;;;;;-146.25;100.00;52100.56;2095417;28;24985;-64
2023/09/07 04:38:25;;;;;;;;;;;;;;;-146.25;100.00;52086.38;2088113;28;28382;-63
2023/09/07 04:39:26;;;;;;;;;;;;;;;-146.25;100.00;52080.28;2087738;28;31378;-63
2023/09/07 04:40:28;;;;;;;;;;;;;;;-146.25;100.00;52076.22;2087863;28;20110;-64
2023/09/07 04:41:29;;;;;;;;;;;;;;;-146.25;100.00;52092.44;2088151;28;20022;-64
2023/09/07 04:42:31;;;;;;;;;;;;;;;-146.25;100.00;52047.84;2088390;28;19921;-63
2023/09/07 04:43:37;;;;;;;;;;;;;;;-146.25;100.00;52068.13;2088186;28;20031;-63
2023/09/07 04:44:39;;;;;;;;;;;;;;;-146.25;100.00;52066.09;2087640;28;27423;-63
2023/09/07 04:45:46;;;;;;;;;;;;;;;-146.25;100.00;52100.56;2089003;28;20083;-64
2023/09/07 04:46:49;;;;;;;;;;;;;;;-146.25;100.00;52066.09;2087438;28;33690;-63
2023/09/07 04:47:52;;;;;;;;;;;;;;;-146.25;100.00;52098.53;2086877;28;34725;-63
2023/09/07 04:48:54;;;;;;;;;;;;;;;-146.25;100.00;52110.69;2096477;28;19921;-64
2023/09/07 04:49:55;;;;;;;;;;;;;;;-146.25;100.00;52092.44;2087966;28;19925;-64
2023/09/07 04:50:59;;;;;;;;;;;;;;;-146.25;100.00;52094.47;2088636;28;20040;-63
2023/09/07 04:52:00;;;;;;;;;;;;;;;-146.25;100.00;52104.63;2087891;28;20022;-64
2023/09/07 04:53:02;;;;;;;;;;;;;;;-146.25;100.00;52066.09;2088065;28;29082;-63
2023/09/07 04:54:04;;;;;;;;;;;;;;;-146.25;100.00;52090.44;2087631;28;19913;-64
2023/09/07 04:55:07;;;;;;;;;;;;;;;-146.25;100.00;52072.19;2088086;28;23733;-63
2023/09/07 04:56:10;;;;;;;;;;;;;;;-146.25;100.00;52066.09;2088080;28;20153;-64
2023/09/07 04:57:16;;;;;;;;;;;;;;;-146.25;100.00;52098.53;2088120;28;19928;-64
2023/09/07 04:58:18;;;;;;;;;;;;;;;-146.25;100.00;52108.66;2087862;28;19921;-64
2023/09/07 04:59:20;;;;;;;;;;;;;;;-146.25;100.00;52029.59;2088893;28;19929;-63
2023/09/07 05:00:22;;;;;;;;;;;;;;;-146.25;100.00;52092.44;2087745;28;22720;-64
2023/09/07 05:01:23;;;;;;;;;;;;;;;-146.25;100.00;52078.25;2079865;28;19932;-63
2023/09/07 05:02:26;;;;;;;;;;;;;;;-146.25;100.00;52072.19;2087949;28;19921;-64
2023/09/07 05:03:28;;;;;;;;;;;;;;;-146.25;100.00;52137.06;2096009;28;32113;-63
2023/09/07 05:04:30;;;;;;;;;;;;;;;-146.25;100.00;52114.75;2088476;28;20888;-64
2023/09/07 05:05:33;;;;;;;;;;;;;;;-146.25;100.00;52094.47;2087977;28;19948;-64
2023/09/07 05:06:37;;;;;;;;;;;;;;;-146.25;100.00;52070.16;2088169;28;19980;-64
2023/09/07 05:07:41;;;;;;;;;;;;;;;-146.25;100.00;52112.72;2087796;28;23580;-63
2023/09/07 05:08:43;;;;;;;;;;;;;;;-146.25;100.00;52082.31;2087347;28;29031;-64
2023/09/07 05:09:45;;;;;;;;;;;;;;;-146.25;100.00;52074.22;2096494;28;19920;-64
2023/09/07 05:10:48;;;;;;;;;;;;;;;-146.25;100.00;52098.53;2088042;28;19924;-63
2023/09/07 05:11:52;;;;;;;;;;;;;;;-146.25;100.00;52116.78;2080051;28;20149;-64
2023/09/07 05:12:54;;;;;;;;;;;;;;;-146.25;100.00;52060.00;2086202;28;20020;-64
2023/09/07 05:13:57;;;;;;;;;;;;;;;-146.25;100.00;52108.66;2088283;28;19925;-63
2023/09/07 05:15:00;;;;;;;;;;;;;;;-146.25;100.00;52108.66;2088074;28;20979;-63
2023/09/07 05:16:04;;;;;;;;;;;;;;;-146.25;100.00;52080.28;2096423;28;19923;-63